sensor_id;sensor_type;location;lat;lon;timestamp;P1;durP1;ratioP1;P2;durP2;ratioP2
74102;SDS011;62853;46.166;3.640;2024-01-27T00:00:09;5.85;;;2.38;;
74102;SDS011;62853;46.166;3.640;2024-01-27T00:02:35;6.38;;;2.00;;
74102;SDS011;62853;46.166;3.640;2024-01-27T00:05:01;5.97;;;2.25;;
74102;SDS011;62853;46.166;3.640;2024-01-27T00:07:27;4.13;;;1.80;;
74102;SDS011;62853;46.166;3.640;2024-01-27T00:09:53;4.15;;;2.10;;
74102;SDS011;62853;46.166;3.640;2024-01-27T00:12:24;8.73;;;2.40;;
74102;SDS011;62853;46.166;3.640;2024-01-27T00:14:49;6.30;;;3.17;;
74102;SDS011;62853;46.166;3.640;2024-01-27T00:17:15;5.13;;;2.47;;
74102;SDS011;62853;46.166;3.640;2024-01-27T00:19:40;5.47;;;2.10;;
74102;SDS011;62853;46.166;3.640;2024-01-27T00:22:06;8.00;;;2.78;;
74102;SDS011;62853;46.166;3.640;2024-01-27T00:24:32;5.70;;;2.03;;
74102;SDS011;62853;46.166;3.640;2024-01-27T00:26:58;4.80;;;2.08;;
74102;SDS011;62853;46.166;3.640;2024-01-27T00:29:23;6.63;;;2.40;;
74102;SDS011;62853;46.166;3.640;2024-01-27T00:31:48;6.00;;;2.65;;
74102;SDS011;62853;46.166;3.640;2024-01-27T00:34:19;4.38;;;2.10;;
74102;SDS011;62853;46.166;3.640;2024-01-27T00:36:45;6.25;;;2.70;;
74102;SDS011;62853;46.166;3.640;2024-01-27T00:39:14;7.15;;;2.28;;
74102;SDS011;62853;46.166;3.640;2024-01-27T00:41:40;5.25;;;2.15;;
74102;SDS011;62853;46.166;3.640;2024-01-27T00:44:05;5.28;;;2.17;;
74102;SDS011;62853;46.166;3.640;2024-01-27T00:46:30;6.20;;;2.20;;
74102;SDS011;62853;46.166;3.640;2024-01-27T00:48:56;6.00;;;2.13;;
74102;SDS011;62853;46.166;3.640;2024-01-27T00:51:21;7.75;;;2.65;;
74102;SDS011;62853;46.166;3.640;2024-01-27T00:53:46;5.97;;;2.03;;
74102;SDS011;62853;46.166;3.640;2024-01-27T00:56:12;6.03;;;2.30;;
74102;SDS011;62853;46.166;3.640;2024-01-27T00:58:37;7.72;;;1.98;;
74102;SDS011;62853;46.166;3.640;2024-01-27T01:01:02;5.55;;;2.20;;
74102;SDS011;62853;46.166;3.640;2024-01-27T01:03:28;5.20;;;2.22;;
74102;SDS011;62853;46.166;3.640;2024-01-27T01:05:53;7.93;;;2.70;;
74102;SDS011;62853;46.166;3.640;2024-01-27T01:08:19;4.75;;;2.20;;
74102;SDS011;62853;46.166;3.640;2024-01-27T01:10:44;6.38;;;2.35;;
74102;SDS011;62853;46.166;3.640;2024-01-27T01:13:10;6.53;;;2.80;;
74102;SDS011;62853;46.166;3.640;2024-01-27T01:15:35;4.13;;;2.20;;
74102;SDS011;62853;46.166;3.640;2024-01-27T01:18:01;7.93;;;2.45;;
74102;SDS011;62853;46.166;3.640;2024-01-27T01:20:26;6.60;;;2.72;;
74102;SDS011;62853;46.166;3.640;2024-01-27T01:22:52;5.78;;;2.40;;
74102;SDS011;62853;46.166;3.640;2024-01-27T01:25:17;7.03;;;2.20;;
74102;SDS011;62853;46.166;3.640;2024-01-27T01:27:43;9.10;;;2.83;;
74102;SDS011;62853;46.166;3.640;2024-01-27T01:30:10;5.35;;;2.38;;
74102;SDS011;62853;46.166;3.640;2024-01-27T01:32:35;6.40;;;2.75;;
74102;SDS011;62853;46.166;3.640;2024-01-27T01:35:01;4.60;;;2.10;;
74102;SDS011;62853;46.166;3.640;2024-01-27T01:37:26;9.32;;;3.33;;
74102;SDS011;62853;46.166;3.640;2024-01-27T01:39:51;5.43;;;2.60;;
74102;SDS011;62853;46.166;3.640;2024-01-27T01:42:17;10.50;;;3.17;;
74102;SDS011;62853;46.166;3.640;2024-01-27T01:44:43;5.28;;;2.40;;
74102;SDS011;62853;46.166;3.640;2024-01-27T01:47:08;5.28;;;2.33;;
74102;SDS011;62853;46.166;3.640;2024-01-27T01:49:34;9.50;;;2.85;;
74102;SDS011;62853;46.166;3.640;2024-01-27T01:52:01;5.50;;;2.72;;
74102;SDS011;62853;46.166;3.640;2024-01-27T01:54:26;6.22;;;2.53;;
74102;SDS011;62853;46.166;3.640;2024-01-27T01:56:53;5.10;;;2.42;;
74102;SDS011;62853;46.166;3.640;2024-01-27T01:59:24;5.95;;;2.42;;
74102;SDS011;62853;46.166;3.640;2024-01-27T02:01:49;7.35;;;2.47;;
74102;SDS011;62853;46.166;3.640;2024-01-27T02:04:14;7.55;;;2.85;;
74102;SDS011;62853;46.166;3.640;2024-01-27T02:06:40;7.55;;;2.60;;
74102;SDS011;62853;46.166;3.640;2024-01-27T02:09:05;5.53;;;2.60;;
74102;SDS011;62853;46.166;3.640;2024-01-27T02:11:31;4.80;;;2.70;;
74102;SDS011;62853;46.166;3.640;2024-01-27T02:13:56;7.70;;;2.70;;
74102;SDS011;62853;46.166;3.640;2024-01-27T02:16:22;5.95;;;2.85;;
74102;SDS011;62853;46.166;3.640;2024-01-27T02:18:47;5.60;;;2.80;;
74102;SDS011;62853;46.166;3.640;2024-01-27T02:21:12;7.72;;;2.90;;
74102;SDS011;62853;46.166;3.640;2024-01-27T02:23:38;5.30;;;2.70;;
74102;SDS011;62853;46.166;3.640;2024-01-27T02:26:03;6.35;;;2.30;;
74102;SDS011;62853;46.166;3.640;2024-01-27T02:28:29;6.88;;;2.83;;
74102;SDS011;62853;46.166;3.640;2024-01-27T02:30:57;4.10;;;2.42;;
74102;SDS011;62853;46.166;3.640;2024-01-27T02:33:23;4.50;;;2.60;;
74102;SDS011;62853;46.166;3.640;2024-01-27T02:35:48;6.47;;;2.55;;
74102;SDS011;62853;46.166;3.640;2024-01-27T02:38:13;5.93;;;2.45;;
74102;SDS011;62853;46.166;3.640;2024-01-27T02:40:39;6.03;;;2.30;;
74102;SDS011;62853;46.166;3.640;2024-01-27T02:43:04;4.65;;;2.33;;
74102;SDS011;62853;46.166;3.640;2024-01-27T02:45:29;6.43;;;2.28;;
74102;SDS011;62853;46.166;3.640;2024-01-27T02:47:55;6.75;;;2.97;;
74102;SDS011;62853;46.166;3.640;2024-01-27T02:50:20;6.40;;;2.28;;
74102;SDS011;62853;46.166;3.640;2024-01-27T02:52:46;5.80;;;2.28;;
74102;SDS011;62853;46.166;3.640;2024-01-27T02:55:11;9.30;;;2.38;;
74102;SDS011;62853;46.166;3.640;2024-01-27T02:57:36;4.85;;;2.83;;
74102;SDS011;62853;46.166;3.640;2024-01-27T03:00:02;7.07;;;2.92;;
74102;SDS011;62853;46.166;3.640;2024-01-27T03:02:29;5.47;;;2.35;;
74102;SDS011;62853;46.166;3.640;2024-01-27T03:04:55;6.68;;;2.72;;
74102;SDS011;62853;46.166;3.640;2024-01-27T03:07:20;6.05;;;3.13;;
74102;SDS011;62853;46.166;3.640;2024-01-27T03:09:46;6.72;;;2.63;;
74102;SDS011;62853;46.166;3.640;2024-01-27T03:12:11;7.07;;;2.80;;
74102;SDS011;62853;46.166;3.640;2024-01-27T03:14:37;7.10;;;2.75;;
74102;SDS011;62853;46.166;3.640;2024-01-27T03:17:03;7.70;;;2.97;;
74102;SDS011;62853;46.166;3.640;2024-01-27T03:19:28;6.90;;;2.72;;
74102;SDS011;62853;46.166;3.640;2024-01-27T03:21:54;6.93;;;2.42;;
74102;SDS011;62853;46.166;3.640;2024-01-27T03:24:19;4.88;;;2.58;;
74102;SDS011;62853;46.166;3.640;2024-01-27T03:26:45;6.78;;;2.67;;
74102;SDS011;62853;46.166;3.640;2024-01-27T03:29:10;8.75;;;3.13;;
74102;SDS011;62853;46.166;3.640;2024-01-27T03:31:35;8.45;;;3.10;;
74102;SDS011;62853;46.166;3.640;2024-01-27T03:34:01;6.75;;;2.35;;
74102;SDS011;62853;46.166;3.640;2024-01-27T03:36:27;9.77;;;3.00;;
74102;SDS011;62853;46.166;3.640;2024-01-27T03:38:53;6.78;;;3.30;;
74102;SDS011;62853;46.166;3.640;2024-01-27T03:41:19;6.55;;;2.97;;
74102;SDS011;62853;46.166;3.640;2024-01-27T03:43:44;7.22;;;3.15;;
74102;SDS011;62853;46.166;3.640;2024-01-27T03:46:10;5.18;;;2.30;;
74102;SDS011;62853;46.166;3.640;2024-01-27T03:48:35;5.25;;;3.05;;
74102;SDS011;62853;46.166;3.640;2024-01-27T03:51:01;7.20;;;2.78;;
74102;SDS011;62853;46.166;3.640;2024-01-27T03:53:27;6.78;;;2.65;;
74102;SDS011;62853;46.166;3.640;2024-01-27T03:55:53;5.70;;;2.72;;
74102;SDS011;62853;46.166;3.640;2024-01-27T03:58:19;7.22;;;2.90;;
74102;SDS011;62853;46.166;3.640;2024-01-27T04:00:44;4.63;;;2.60;;
74102;SDS011;62853;46.166;3.640;2024-01-27T04:03:10;6.43;;;2.70;;
74102;SDS011;62853;46.166;3.640;2024-01-27T04:05:35;5.90;;;2.75;;
74102;SDS011;62853;46.166;3.640;2024-01-27T04:08:01;4.93;;;2.83;;
74102;SDS011;62853;46.166;3.640;2024-01-27T04:10:27;6.70;;;2.60;;
74102;SDS011;62853;46.166;3.640;2024-01-27T04:12:52;6.95;;;2.42;;
74102;SDS011;62853;46.166;3.640;2024-01-27T04:15:17;6.15;;;2.60;;
74102;SDS011;62853;46.166;3.640;2024-01-27T04:17:43;4.53;;;2.55;;
74102;SDS011;62853;46.166;3.640;2024-01-27T04:20:09;6.65;;;3.05;;
74102;SDS011;62853;46.166;3.640;2024-01-27T04:22:34;7.80;;;2.42;;
74102;SDS011;62853;46.166;3.640;2024-01-27T04:25:00;6.85;;;2.30;;
74102;SDS011;62853;46.166;3.640;2024-01-27T04:27:29;5.38;;;2.47;;
74102;SDS011;62853;46.166;3.640;2024-01-27T04:29:54;7.43;;;2.97;;
74102;SDS011;62853;46.166;3.640;2024-01-27T04:32:21;7.88;;;3.55;;
74102;SDS011;62853;46.166;3.640;2024-01-27T04:34:47;9.75;;;3.30;;
74102;SDS011;62853;46.166;3.640;2024-01-27T04:37:13;6.63;;;2.40;;
74102;SDS011;62853;46.166;3.640;2024-01-27T04:39:38;7.50;;;3.40;;
74102;SDS011;62853;46.166;3.640;2024-01-27T04:42:04;6.78;;;2.63;;
74102;SDS011;62853;46.166;3.640;2024-01-27T04:44:31;6.05;;;2.50;;
74102;SDS011;62853;46.166;3.640;2024-01-27T04:46:57;6.00;;;2.80;;
74102;SDS011;62853;46.166;3.640;2024-01-27T04:49:22;6.03;;;3.03;;
74102;SDS011;62853;46.166;3.640;2024-01-27T04:51:47;5.85;;;2.90;;
74102;SDS011;62853;46.166;3.640;2024-01-27T04:54:13;6.95;;;3.15;;
74102;SDS011;62853;46.166;3.640;2024-01-27T04:56:38;5.43;;;2.70;;
74102;SDS011;62853;46.166;3.640;2024-01-27T04:59:04;6.15;;;2.83;;
74102;SDS011;62853;46.166;3.640;2024-01-27T05:01:31;7.32;;;3.17;;
74102;SDS011;62853;46.166;3.640;2024-01-27T05:03:57;8.57;;;3.03;;
74102;SDS011;62853;46.166;3.640;2024-01-27T05:06:22;5.57;;;2.35;;
74102;SDS011;62853;46.166;3.640;2024-01-27T05:08:47;5.57;;;3.20;;
74102;SDS011;62853;46.166;3.640;2024-01-27T05:11:13;4.57;;;2.40;;
74102;SDS011;62853;46.166;3.640;2024-01-27T05:13:39;5.95;;;2.67;;
74102;SDS011;62853;46.166;3.640;2024-01-27T05:16:05;6.03;;;3.08;;
74102;SDS011;62853;46.166;3.640;2024-01-27T05:18:31;8.35;;;2.60;;
74102;SDS011;62853;46.166;3.640;2024-01-27T05:20:56;4.22;;;2.40;;
74102;SDS011;62853;46.166;3.640;2024-01-27T05:23:22;5.57;;;2.90;;
74102;SDS011;62853;46.166;3.640;2024-01-27T05:25:48;10.77;;;3.35;;
74102;SDS011;62853;46.166;3.640;2024-01-27T05:28:14;6.15;;;2.50;;
74102;SDS011;62853;46.166;3.640;2024-01-27T05:30:39;4.60;;;2.67;;
74102;SDS011;62853;46.166;3.640;2024-01-27T05:33:04;4.70;;;2.50;;
74102;SDS011;62853;46.166;3.640;2024-01-27T05:35:30;6.45;;;2.67;;
74102;SDS011;62853;46.166;3.640;2024-01-27T05:37:55;5.35;;;2.95;;
74102;SDS011;62853;46.166;3.640;2024-01-27T05:40:21;6.18;;;2.75;;
74102;SDS011;62853;46.166;3.640;2024-01-27T05:42:46;8.82;;;2.85;;
74102;SDS011;62853;46.166;3.640;2024-01-27T05:45:12;8.10;;;2.60;;
74102;SDS011;62853;46.166;3.640;2024-01-27T05:47:38;7.05;;;2.55;;
74102;SDS011;62853;46.166;3.640;2024-01-27T05:50:03;7.40;;;3.35;;
74102;SDS011;62853;46.166;3.640;2024-01-27T05:52:29;8.10;;;2.95;;
74102;SDS011;62853;46.166;3.640;2024-01-27T05:54:55;5.82;;;2.78;;
74102;SDS011;62853;46.166;3.640;2024-01-27T05:57:20;5.55;;;2.45;;
74102;SDS011;62853;46.166;3.640;2024-01-27T05:59:45;6.38;;;2.53;;
74102;SDS011;62853;46.166;3.640;2024-01-27T06:02:11;8.48;;;2.70;;
74102;SDS011;62853;46.166;3.640;2024-01-27T06:04:36;4.90;;;2.90;;
74102;SDS011;62853;46.166;3.640;2024-01-27T06:07:01;5.93;;;2.67;;
74102;SDS011;62853;46.166;3.640;2024-01-27T06:09:27;4.63;;;2.90;;
74102;SDS011;62853;46.166;3.640;2024-01-27T06:11:52;6.93;;;2.60;;
74102;SDS011;62853;46.166;3.640;2024-01-27T06:14:18;8.60;;;3.17;;
74102;SDS011;62853;46.166;3.640;2024-01-27T06:16:43;5.57;;;2.70;;
74102;SDS011;62853;46.166;3.640;2024-01-27T06:19:09;5.78;;;2.70;;
74102;SDS011;62853;46.166;3.640;2024-01-27T06:21:34;5.03;;;2.85;;
74102;SDS011;62853;46.166;3.640;2024-01-27T06:24:00;8.18;;;3.10;;
74102;SDS011;62853;46.166;3.640;2024-01-27T06:26:25;8.27;;;2.88;;
74102;SDS011;62853;46.166;3.640;2024-01-27T06:28:51;5.65;;;2.75;;
74102;SDS011;62853;46.166;3.640;2024-01-27T06:31:16;5.72;;;2.40;;
74102;SDS011;62853;46.166;3.640;2024-01-27T06:33:41;6.82;;;3.10;;
74102;SDS011;62853;46.166;3.640;2024-01-27T06:36:07;6.65;;;2.58;;
74102;SDS011;62853;46.166;3.640;2024-01-27T06:38:34;6.00;;;3.58;;
74102;SDS011;62853;46.166;3.640;2024-01-27T06:41:00;7.15;;;3.42;;
74102;SDS011;62853;46.166;3.640;2024-01-27T06:43:26;7.75;;;3.03;;
74102;SDS011;62853;46.166;3.640;2024-01-27T06:45:51;5.38;;;3.00;;
74102;SDS011;62853;46.166;3.640;2024-01-27T06:48:16;6.25;;;3.03;;
74102;SDS011;62853;46.166;3.640;2024-01-27T06:50:42;7.72;;;3.22;;
74102;SDS011;62853;46.166;3.640;2024-01-27T06:53:07;6.72;;;3.10;;
74102;SDS011;62853;46.166;3.640;2024-01-27T06:55:35;7.13;;;3.50;;
74102;SDS011;62853;46.166;3.640;2024-01-27T06:58:00;7.15;;;3.17;;
74102;SDS011;62853;46.166;3.640;2024-01-27T07:00:26;7.55;;;3.33;;
74102;SDS011;62853;46.166;3.640;2024-01-27T07:02:52;6.35;;;3.10;;
74102;SDS011;62853;46.166;3.640;2024-01-27T07:05:17;7.18;;;2.78;;
74102;SDS011;62853;46.166;3.640;2024-01-27T07:07:43;7.57;;;3.33;;
74102;SDS011;62853;46.166;3.640;2024-01-27T07:10:08;9.15;;;3.40;;
74102;SDS011;62853;46.166;3.640;2024-01-27T07:12:34;4.63;;;2.75;;
74102;SDS011;62853;46.166;3.640;2024-01-27T07:14:59;7.88;;;3.10;;
74102;SDS011;62853;46.166;3.640;2024-01-27T07:17:28;5.72;;;3.38;;
74102;SDS011;62853;46.166;3.640;2024-01-27T07:19:54;10.32;;;5.80;;
74102;SDS011;62853;46.166;3.640;2024-01-27T07:22:20;5.00;;;3.15;;
74102;SDS011;62853;46.166;3.640;2024-01-27T07:24:45;8.70;;;3.50;;
74102;SDS011;62853;46.166;3.640;2024-01-27T07:27:13;7.43;;;3.08;;
74102;SDS011;62853;46.166;3.640;2024-01-27T07:29:39;7.15;;;2.90;;
74102;SDS011;62853;46.166;3.640;2024-01-27T07:32:05;9.10;;;3.35;;
74102;SDS011;62853;46.166;3.640;2024-01-27T07:34:32;5.90;;;2.90;;
74102;SDS011;62853;46.166;3.640;2024-01-27T07:36:58;6.43;;;2.90;;
74102;SDS011;62853;46.166;3.640;2024-01-27T07:39:23;6.80;;;2.90;;
74102;SDS011;62853;46.166;3.640;2024-01-27T07:41:49;8.75;;;3.22;;
74102;SDS011;62853;46.166;3.640;2024-01-27T07:44:14;5.53;;;2.55;;
74102;SDS011;62853;46.166;3.640;2024-01-27T07:46:40;7.38;;;3.10;;
74102;SDS011;62853;46.166;3.640;2024-01-27T07:49:07;5.28;;;2.50;;
74102;SDS011;62853;46.166;3.640;2024-01-27T07:51:33;7.45;;;3.40;;
74102;SDS011;62853;46.166;3.640;2024-01-27T07:53:58;7.57;;;3.65;;
74102;SDS011;62853;46.166;3.640;2024-01-27T07:56:24;8.20;;;3.22;;
74102;SDS011;62853;46.166;3.640;2024-01-27T07:58:50;5.93;;;3.35;;
74102;SDS011;62853;46.166;3.640;2024-01-27T08:01:16;6.57;;;3.45;;
74102;SDS011;62853;46.166;3.640;2024-01-27T08:03:42;6.13;;;3.22;;
74102;SDS011;62853;46.166;3.640;2024-01-27T08:06:10;8.63;;;3.10;;
74102;SDS011;62853;46.166;3.640;2024-01-27T08:11:05;7.57;;;3.10;;
74102;SDS011;62853;46.166;3.640;2024-01-27T08:13:31;9.70;;;3.75;;
74102;SDS011;62853;46.166;3.640;2024-01-27T08:15:56;6.30;;;3.20;;
74102;SDS011;62853;46.166;3.640;2024-01-27T08:18:21;6.43;;;3.65;;
74102;SDS011;62853;46.166;3.640;2024-01-27T08:20:47;8.38;;;3.72;;
74102;SDS011;62853;46.166;3.640;2024-01-27T08:23:12;8.77;;;3.78;;
74102;SDS011;62853;46.166;3.640;2024-01-27T08:25:37;7.95;;;3.28;;
74102;SDS011;62853;46.166;3.640;2024-01-27T08:28:04;9.02;;;5.43;;
74102;SDS011;62853;46.166;3.640;2024-01-27T08:30:30;9.63;;;3.85;;
74102;SDS011;62853;46.166;3.640;2024-01-27T08:32:55;6.95;;;3.17;;
74102;SDS011;62853;46.166;3.640;2024-01-27T08:35:20;6.53;;;3.10;;
74102;SDS011;62853;46.166;3.640;2024-01-27T08:37:46;6.28;;;3.33;;
74102;SDS011;62853;46.166;3.640;2024-01-27T08:40:11;6.63;;;3.17;;
74102;SDS011;62853;46.166;3.640;2024-01-27T08:42:38;9.68;;;3.28;;
74102;SDS011;62853;46.166;3.640;2024-01-27T08:45:04;10.02;;;3.67;;
74102;SDS011;62853;46.166;3.640;2024-01-27T08:47:31;6.80;;;3.22;;
74102;SDS011;62853;46.166;3.640;2024-01-27T08:49:57;8.10;;;3.30;;
74102;SDS011;62853;46.166;3.640;2024-01-27T08:52:22;9.30;;;4.53;;
74102;SDS011;62853;46.166;3.640;2024-01-27T08:54:47;8.10;;;3.58;;
74102;SDS011;62853;46.166;3.640;2024-01-27T08:57:13;7.05;;;3.30;;
74102;SDS011;62853;46.166;3.640;2024-01-27T08:59:38;7.13;;;3.20;;
74102;SDS011;62853;46.166;3.640;2024-01-27T09:02:03;8.10;;;4.07;;
74102;SDS011;62853;46.166;3.640;2024-01-27T09:04:29;7.80;;;3.58;;
74102;SDS011;62853;46.166;3.640;2024-01-27T09:06:55;8.90;;;3.08;;
74102;SDS011;62853;46.166;3.640;2024-01-27T09:09:20;8.82;;;3.80;;
74102;SDS011;62853;46.166;3.640;2024-01-27T09:11:46;7.03;;;3.15;;
74102;SDS011;62853;46.166;3.640;2024-01-27T09:14:11;10.55;;;5.00;;
74102;SDS011;62853;46.166;3.640;2024-01-27T09:16:37;7.35;;;2.90;;
74102;SDS011;62853;46.166;3.640;2024-01-27T09:19:03;9.18;;;4.30;;
74102;SDS011;62853;46.166;3.640;2024-01-27T09:21:28;8.73;;;4.07;;
74102;SDS011;62853;46.166;3.640;2024-01-27T09:23:55;10.32;;;3.35;;
74102;SDS011;62853;46.166;3.640;2024-01-27T09:26:22;7.70;;;3.35;;
74102;SDS011;62853;46.166;3.640;2024-01-27T09:28:48;8.23;;;3.70;;
74102;SDS011;62853;46.166;3.640;2024-01-27T09:31:19;10.07;;;3.17;;
74102;SDS011;62853;46.166;3.640;2024-01-27T09:33:51;6.97;;;3.03;;
74102;SDS011;62853;46.166;3.640;2024-01-27T09:36:18;7.88;;;3.45;;
74102;SDS011;62853;46.166;3.640;2024-01-27T09:38:44;8.77;;;4.00;;
74102;SDS011;62853;46.166;3.640;2024-01-27T09:41:11;11.30;;;6.03;;
74102;SDS011;62853;46.166;3.640;2024-01-27T09:43:40;10.30;;;4.78;;
74102;SDS011;62853;46.166;3.640;2024-01-27T09:46:09;8.45;;;3.90;;
74102;SDS011;62853;46.166;3.640;2024-01-27T09:48:35;9.10;;;3.42;;
74102;SDS011;62853;46.166;3.640;2024-01-27T09:51:01;10.10;;;3.50;;
74102;SDS011;62853;46.166;3.640;2024-01-27T09:53:28;9.85;;;4.25;;
74102;SDS011;62853;46.166;3.640;2024-01-27T09:55:53;9.52;;;3.50;;
74102;SDS011;62853;46.166;3.640;2024-01-27T09:58:21;6.68;;;3.15;;
74102;SDS011;62853;46.166;3.640;2024-01-27T10:00:49;8.52;;;4.25;;
74102;SDS011;62853;46.166;3.640;2024-01-27T10:03:14;8.32;;;3.47;;
74102;SDS011;62853;46.166;3.640;2024-01-27T10:05:42;8.90;;;4.00;;
74102;SDS011;62853;46.166;3.640;2024-01-27T10:08:09;12.35;;;6.72;;
74102;SDS011;62853;46.166;3.640;2024-01-27T10:10:34;5.93;;;3.35;;
74102;SDS011;62853;46.166;3.640;2024-01-27T10:13:00;9.05;;;4.07;;
74102;SDS011;62853;46.166;3.640;2024-01-27T10:15:28;11.23;;;3.67;;
74102;SDS011;62853;46.166;3.640;2024-01-27T10:18:03;8.80;;;3.95;;
74102;SDS011;62853;46.166;3.640;2024-01-27T10:20:32;9.52;;;3.47;;
74102;SDS011;62853;46.166;3.640;2024-01-27T10:22:58;7.82;;;3.55;;
74102;SDS011;62853;46.166;3.640;2024-01-27T10:25:37;10.20;;;6.60;;
74102;SDS011;62853;46.166;3.640;2024-01-27T10:28:04;11.70;;;5.95;;
74102;SDS011;62853;46.166;3.640;2024-01-27T10:30:31;8.63;;;3.80;;
74102;SDS011;62853;46.166;3.640;2024-01-27T10:32:56;9.40;;;4.85;;
74102;SDS011;62853;46.166;3.640;2024-01-27T10:35:22;8.07;;;4.50;;
74102;SDS011;62853;46.166;3.640;2024-01-27T10:37:51;9.50;;;4.18;;
74102;SDS011;62853;46.166;3.640;2024-01-27T10:40:18;9.60;;;4.00;;
74102;SDS011;62853;46.166;3.640;2024-01-27T10:42:43;8.57;;;4.32;;
74102;SDS011;62853;46.166;3.640;2024-01-27T10:45:09;10.32;;;4.15;;
74102;SDS011;62853;46.166;3.640;2024-01-27T10:47:37;9.65;;;3.90;;
74102;SDS011;62853;46.166;3.640;2024-01-27T10:50:07;13.20;;;6.38;;
74102;SDS011;62853;46.166;3.640;2024-01-27T10:52:37;12.85;;;6.45;;
74102;SDS011;62853;46.166;3.640;2024-01-27T10:55:04;9.50;;;4.50;;
74102;SDS011;62853;46.166;3.640;2024-01-27T10:57:35;9.23;;;3.58;;
74102;SDS011;62853;46.166;3.640;2024-01-27T11:00:02;10.13;;;4.78;;
74102;SDS011;62853;46.166;3.640;2024-01-27T11:02:34;10.18;;;4.55;;
74102;SDS011;62853;46.166;3.640;2024-01-27T11:05:04;11.40;;;4.13;;
74102;SDS011;62853;46.166;3.640;2024-01-27T11:07:32;6.55;;;3.30;;
74102;SDS011;62853;46.166;3.640;2024-01-27T11:09:59;10.15;;;3.88;;
74102;SDS011;62853;46.166;3.640;2024-01-27T11:12:25;9.68;;;3.50;;
74102;SDS011;62853;46.166;3.640;2024-01-27T11:14:51;11.32;;;3.83;;
74102;SDS011;62853;46.166;3.640;2024-01-27T11:17:18;8.70;;;3.72;;
74102;SDS011;62853;46.166;3.640;2024-01-27T11:19:44;9.43;;;3.45;;
74102;SDS011;62853;46.166;3.640;2024-01-27T11:27:35;9.88;;;5.50;;
74102;SDS011;62853;46.166;3.640;2024-01-27T11:30:01;9.63;;;4.18;;
74102;SDS011;62853;46.166;3.640;2024-01-27T11:32:27;8.05;;;3.15;;
74102;SDS011;62853;46.166;3.640;2024-01-27T11:34:52;11.63;;;3.60;;
74102;SDS011;62853;46.166;3.640;2024-01-27T11:37:18;7.45;;;3.10;;
74102;SDS011;62853;46.166;3.640;2024-01-27T11:39:45;7.78;;;3.30;;
74102;SDS011;62853;46.166;3.640;2024-01-27T11:42:11;5.18;;;2.28;;
74102;SDS011;62853;46.166;3.640;2024-01-27T11:44:38;7.45;;;2.42;;
74102;SDS011;62853;46.166;3.640;2024-01-27T11:47:04;8.45;;;3.00;;
74102;SDS011;62853;46.166;3.640;2024-01-27T11:49:30;8.93;;;2.85;;
74102;SDS011;62853;46.166;3.640;2024-01-27T11:51:56;7.28;;;2.90;;
74102;SDS011;62853;46.166;3.640;2024-01-27T11:54:21;9.75;;;5.13;;
74102;SDS011;62853;46.166;3.640;2024-01-27T11:56:47;7.30;;;4.20;;
74102;SDS011;62853;46.166;3.640;2024-01-27T11:59:12;4.82;;;2.72;;
74102;SDS011;62853;46.166;3.640;2024-01-27T12:01:37;8.18;;;2.60;;
74102;SDS011;62853;46.166;3.640;2024-01-27T12:04:07;5.57;;;2.60;;
74102;SDS011;62853;46.166;3.640;2024-01-27T12:06:34;6.05;;;2.75;;
74102;SDS011;62853;46.166;3.640;2024-01-27T12:08:59;9.82;;;2.60;;
74102;SDS011;62853;46.166;3.640;2024-01-27T12:11:25;6.65;;;2.58;;
74102;SDS011;62853;46.166;3.640;2024-01-27T12:13:51;8.13;;;3.15;;
74102;SDS011;62853;46.166;3.640;2024-01-27T12:16:22;8.48;;;4.00;;
74102;SDS011;62853;46.166;3.640;2024-01-27T12:18:51;11.50;;;4.38;;
74102;SDS011;62853;46.166;3.640;2024-01-27T12:21:20;8.07;;;2.55;;
74102;SDS011;62853;46.166;3.640;2024-01-27T12:23:52;8.07;;;2.90;;
74102;SDS011;62853;46.166;3.640;2024-01-27T12:26:25;4.93;;;2.30;;
74102;SDS011;62853;46.166;3.640;2024-01-27T12:31:17;6.13;;;1.83;;
74102;SDS011;62853;46.166;3.640;2024-01-27T12:33:50;4.82;;;2.38;;
74102;SDS011;62853;46.166;3.640;2024-01-27T12:38:42;4.68;;;2.17;;
74102;SDS011;62853;46.166;3.640;2024-01-27T12:41:07;4.68;;;2.00;;
74102;SDS011;62853;46.166;3.640;2024-01-27T12:43:32;5.82;;;2.05;;
74102;SDS011;62853;46.166;3.640;2024-01-27T12:45:58;7.93;;;3.75;;
74102;SDS011;62853;46.166;3.640;2024-01-27T12:48:23;6.93;;;3.00;;
74102;SDS011;62853;46.166;3.640;2024-01-27T12:50:49;9.95;;;2.35;;
74102;SDS011;62853;46.166;3.640;2024-01-27T12:53:14;5.90;;;2.40;;
74102;SDS011;62853;46.166;3.640;2024-01-27T12:55:39;6.43;;;2.20;;
74102;SDS011;62853;46.166;3.640;2024-01-27T12:58:05;5.13;;;2.25;;
74102;SDS011;62853;46.166;3.640;2024-01-27T13:00:30;5.43;;;2.17;;
74102;SDS011;62853;46.166;3.640;2024-01-27T13:02:56;6.30;;;2.00;;
74102;SDS011;62853;46.166;3.640;2024-01-27T13:05:21;6.80;;;1.63;;
74102;SDS011;62853;46.166;3.640;2024-01-27T13:07:46;7.78;;;2.20;;
74102;SDS011;62853;46.166;3.640;2024-01-27T13:10:13;4.43;;;1.90;;
74102;SDS011;62853;46.166;3.640;2024-01-27T13:12:38;5.80;;;1.80;;
74102;SDS011;62853;46.166;3.640;2024-01-27T13:15:04;6.70;;;2.10;;
74102;SDS011;62853;46.166;3.640;2024-01-27T13:17:30;6.65;;;3.13;;
74102;SDS011;62853;46.166;3.640;2024-01-27T13:19:56;9.60;;;3.35;;
74102;SDS011;62853;46.166;3.640;2024-01-27T13:22:21;6.22;;;2.63;;
74102;SDS011;62853;46.166;3.640;2024-01-27T13:24:49;5.22;;;2.10;;
74102;SDS011;62853;46.166;3.640;2024-01-27T13:27:14;3.88;;;2.00;;
74102;SDS011;62853;46.166;3.640;2024-01-27T13:29:40;6.45;;;2.55;;
74102;SDS011;62853;46.166;3.640;2024-01-27T13:32:05;5.38;;;1.85;;
74102;SDS011;62853;46.166;3.640;2024-01-27T13:34:31;8.30;;;2.60;;
74102;SDS011;62853;46.166;3.640;2024-01-27T13:36:57;7.93;;;2.40;;
74102;SDS011;62853;46.166;3.640;2024-01-27T13:39:25;4.57;;;1.73;;
74102;SDS011;62853;46.166;3.640;2024-01-27T13:41:50;5.55;;;1.70;;
74102;SDS011;62853;46.166;3.640;2024-01-27T13:44:15;5.95;;;1.90;;
74102;SDS011;62853;46.166;3.640;2024-01-27T13:46:41;6.22;;;1.80;;
74102;SDS011;62853;46.166;3.640;2024-01-27T13:49:06;7.40;;;3.17;;
74102;SDS011;62853;46.166;3.640;2024-01-27T13:51:32;5.78;;;2.60;;
74102;SDS011;62853;46.166;3.640;2024-01-27T13:53:57;5.80;;;2.38;;
74102;SDS011;62853;46.166;3.640;2024-01-27T13:56:23;4.70;;;1.90;;
74102;SDS011;62853;46.166;3.640;2024-01-27T13:58:49;5.97;;;2.08;;
74102;SDS011;62853;46.166;3.640;2024-01-27T14:01:14;4.45;;;1.55;;
74102;SDS011;62853;46.166;3.640;2024-01-27T14:03:40;5.78;;;1.90;;
74102;SDS011;62853;46.166;3.640;2024-01-27T14:06:06;3.65;;;1.73;;
74102;SDS011;62853;46.166;3.640;2024-01-27T14:08:36;6.78;;;2.20;;
74102;SDS011;62853;46.166;3.640;2024-01-27T14:11:02;4.65;;;1.60;;
74102;SDS011;62853;46.166;3.640;2024-01-27T14:13:27;5.90;;;2.38;;
74102;SDS011;62853;46.166;3.640;2024-01-27T14:15:53;5.95;;;2.60;;
74102;SDS011;62853;46.166;3.640;2024-01-27T14:18:18;5.55;;;1.50;;
74102;SDS011;62853;46.166;3.640;2024-01-27T14:20:46;4.68;;;1.70;;
74102;SDS011;62853;46.166;3.640;2024-01-27T14:23:12;5.38;;;1.30;;
74102;SDS011;62853;46.166;3.640;2024-01-27T14:25:37;6.07;;;1.90;;
74102;SDS011;62853;46.166;3.640;2024-01-27T14:28:03;6.10;;;1.50;;
74102;SDS011;62853;46.166;3.640;2024-01-27T14:30:32;3.08;;;1.38;;
74102;SDS011;62853;46.166;3.640;2024-01-27T14:32:57;7.68;;;1.60;;
74102;SDS011;62853;46.166;3.640;2024-01-27T14:35:23;4.40;;;2.00;;
74102;SDS011;62853;46.166;3.640;2024-01-27T14:37:49;4.28;;;2.50;;
74102;SDS011;62853;46.166;3.640;2024-01-27T14:40:15;5.38;;;2.55;;
74102;SDS011;62853;46.166;3.640;2024-01-27T14:42:40;6.00;;;1.98;;
74102;SDS011;62853;46.166;3.640;2024-01-27T14:45:06;3.95;;;1.52;;
74102;SDS011;62853;46.166;3.640;2024-01-27T14:47:33;4.60;;;1.65;;
74102;SDS011;62853;46.166;3.640;2024-01-27T14:49:59;4.70;;;1.75;;
74102;SDS011;62853;46.166;3.640;2024-01-27T14:52:24;4.93;;;1.48;;